createdAt,value
2019-04-23T00:01:46.124Z,7.78
2019-04-23T00:04:07.213Z,8.30
2019-04-23T00:06:43.337Z,7.97
2019-04-23T00:11:33.433Z,8.38
2019-04-23T00:14:05.974Z,8.53
2019-04-23T00:16:29.632Z,8.60
2019-04-23T00:18:53.735Z,8.48
2019-04-23T00:21:46.014Z,8.30
2019-04-23T00:24:52.671Z,8.10
2019-04-23T00:27:06.235Z,8.53
2019-04-23T00:29:28.532Z,8.83
2019-04-23T00:32:00.904Z,8.53
2019-04-23T00:34:24.634Z,9.13
2019-04-23T00:36:51.522Z,8.40
2019-04-23T00:39:23.260Z,9.05
2019-04-23T00:41:52.902Z,9.18
2019-04-23T00:46:49.971Z,8.75
2019-04-23T00:51:42.879Z,9.00
2019-04-23T00:54:14.561Z,8.70
2019-04-23T00:56:44.617Z,9.45
2019-04-23T00:59:05.220Z,9.05
2019-04-23T01:01:45.849Z,9.40
2019-04-23T01:04:18.581Z,9.23
2019-04-23T01:06:29.036Z,8.90
2019-04-23T01:11:27.523Z,9.43
2019-04-23T01:13:54.034Z,8.75
2019-04-23T01:16:21.299Z,9.08
2019-04-23T01:18:56.223Z,9.28
2019-04-23T01:21:07.578Z,9.05
2019-04-23T01:23:44.345Z,9.13
2019-04-23T01:26:23.890Z,9.95
2019-04-23T01:29:03.430Z,9.95
2019-04-23T01:31:29.329Z,9.68
2019-04-23T01:33:56.159Z,9.93
2019-04-23T01:39:00.215Z,10.03
2019-04-23T01:41:25.251Z,10.25
2019-04-23T01:43:47.381Z,9.95
2019-04-23T01:46:14.481Z,9.98
2019-04-23T01:48:48.233Z,10.00
2019-04-23T01:51:07.835Z,10.13
2019-04-23T01:53:38.686Z,10.05
2019-04-23T01:56:14.006Z,10.55
2019-04-23T02:01:08.708Z,10.45
2019-04-23T02:03:34.794Z,10.45
2019-04-23T02:08:36.625Z,9.93
2019-04-23T02:13:33.981Z,10.40
2019-04-23T02:15:53.365Z,11.08
2019-04-23T02:18:25.006Z,10.63
2019-04-23T02:20:56.544Z,10.38
2019-04-23T02:28:32.843Z,10.58
2019-04-23T02:38:42.270Z,10.63
2019-04-23T02:41:04.621Z,10.20
2019-04-23T02:43:22.707Z,10.03
2019-04-23T02:48:24.289Z,10.78
2019-04-23T02:50:48.613Z,10.00
2019-04-23T02:53:31.739Z,11.68
2019-04-23T02:58:21.234Z,10.35
2019-04-23T03:00:57.352Z,10.88
2019-04-23T03:03:13.570Z,10.95
2019-04-23T03:05:57.359Z,10.53
2019-04-23T03:08:31.033Z,10.30
2019-04-23T03:10:42.784Z,10.58
2019-04-23T03:13:27.960Z,10.23
2019-04-23T03:18:33.227Z,11.28
2019-04-23T03:21:05.819Z,10.75
2019-04-23T03:25:56.575Z,11.03
2019-04-23T03:28:47.137Z,10.82
2019-04-23T03:38:36.292Z,11.20
2019-04-23T03:41:02.314Z,11.18
2019-04-23T03:43:26.198Z,10.55
2019-04-23T03:45:58.939Z,11.45
2019-04-23T03:48:25.796Z,11.40
2019-04-23T03:50:38.948Z,11.55
2019-04-23T03:53:22.611Z,11.45
2019-04-23T03:55:51.698Z,10.80
2019-04-23T03:58:10.586Z,10.65
2019-04-23T04:00:48.092Z,10.95
2019-04-23T04:05:47.324Z,10.93
2019-04-23T04:10:35.287Z,10.98
2019-04-23T04:12:56.756Z,11.35
2019-04-23T04:18:11.808Z,10.35
2019-04-23T04:23:15.495Z,10.80
2019-04-23T04:25:26.041Z,11.40
2019-04-23T04:28:01.322Z,10.45
2019-04-23T04:30:22.315Z,11.40
2019-04-23T04:32:56.782Z,11.18
2019-04-23T04:37:52.852Z,11.30
2019-04-23T04:40:28.972Z,11.28
2019-04-23T04:45:16.757Z,12.58
2019-04-23T04:47:41.766Z,13.30
2019-04-23T04:49:59.716Z,11.75
2019-04-23T04:54:55.847Z,11.63
2019-04-23T05:00:06.471Z,10.85
2019-04-23T05:02:43.669Z,11.80
2019-04-23T05:04:59.850Z,11.80
2019-04-23T05:07:32.685Z,11.38
2019-04-23T05:09:57.611Z,12.15
2019-04-23T05:12:19.177Z,11.85
2019-04-23T05:14:52.549Z,11.45
2019-04-23T05:17:35.959Z,11.70
2019-04-23T05:19:51.126Z,11.75
2019-04-23T05:22:22.542Z,11.18
2019-04-23T05:24:49.220Z,11.97
2019-04-23T05:27:16.096Z,11.60
2019-04-23T05:29:50.752Z,12.00
2019-04-23T05:32:27.223Z,11.08
2019-04-23T05:34:40.179Z,11.03
2019-04-23T05:37:06.329Z,11.83
2019-04-23T05:39:35.761Z,11.73
2019-04-23T05:42:02.140Z,11.25
2019-04-23T05:44:41.464Z,11.85
2019-04-23T05:46:52.195Z,11.75
2019-04-23T05:49:27.930Z,11.25
2019-04-23T05:51:55.192Z,10.43
2019-04-23T05:54:26.589Z,10.63
2019-04-23T05:56:51.695Z,10.98
2019-04-23T05:59:16.334Z,10.20
2019-04-23T06:04:27.074Z,10.23
2019-04-23T06:09:13.935Z,10.43
2019-04-23T06:14:11.775Z,10.15
2019-04-23T06:16:41.635Z,9.60
2019-04-23T06:19:08.015Z,9.30
2019-04-23T06:21:47.871Z,9.68
2019-04-23T06:24:09.950Z,9.68
2019-04-23T06:29:06.747Z,8.78
2019-04-23T06:31:36.309Z,9.43
2019-04-23T06:33:54.238Z,8.23
2019-04-23T06:36:30.743Z,9.43
2019-04-23T06:38:57.070Z,8.83
2019-04-23T06:41:23.930Z,9.00
2019-04-23T06:44:00.585Z,8.75
2019-04-23T06:46:19.975Z,8.50
2019-04-23T06:48:47.022Z,8.70
2019-04-23T06:51:20.172Z,8.20
2019-04-23T06:53:43.108Z,8.60
2019-04-23T06:58:37.331Z,8.33
2019-04-23T07:01:06.697Z,8.55
2019-04-23T07:08:55.788Z,7.92
2019-04-23T07:11:18.715Z,7.92
2019-04-23T07:13:46.613Z,8.00
2019-04-23T07:16:03.195Z,7.97
2019-04-23T07:18:29.344Z,7.35
2019-04-23T07:21:06.549Z,7.78
2019-04-23T07:23:38.047Z,7.50
2019-04-23T07:26:08.169Z,7.12
2019-04-23T07:28:50.202Z,7.08
2019-04-23T07:31:00.533Z,7.25
2019-04-23T07:33:32.680Z,6.83
2019-04-23T07:35:52.036Z,7.33
2019-04-23T07:38:40.667Z,6.67
2019-04-23T07:41:34.349Z,6.90
2019-04-23T07:43:54.543Z,6.58
2019-04-23T07:46:25.345Z,7.03
2019-04-23T07:48:49.211Z,5.95
2019-04-23T07:51:19.559Z,6.95
2019-04-23T07:56:15.542Z,6.50
2019-04-23T07:58:52.465Z,6.60
2019-04-23T08:01:08.327Z,6.47
2019-04-23T08:06:06.156Z,6.10
2019-04-23T08:08:39.782Z,6.28
2019-04-23T08:13:39.453Z,6.08
2019-04-23T08:16:08.917Z,5.58
2019-04-23T08:18:40.008Z,4.92
2019-04-23T08:21:02.454Z,5.60
2019-04-23T08:23:49.626Z,5.65
2019-04-23T08:31:40.255Z,5.55
2019-04-23T08:34:10.377Z,5.47
2019-04-23T08:36:34.493Z,5.60
2019-04-23T08:38:57.529Z,5.97
2019-04-23T08:43:57.236Z,6.08
2019-04-23T08:46:50.985Z,5.55
2019-04-23T08:49:14.397Z,6.00
2019-04-23T08:52:04.424Z,5.70
2019-04-23T08:54:13.390Z,5.87
2019-04-23T08:56:42.835Z,5.65
2019-04-23T08:59:09.401Z,6.05
2019-04-23T09:01:43.574Z,5.83
2019-04-23T09:04:04.801Z,6.12
2019-04-23T09:06:32.564Z,6.08
2019-04-23T09:08:56.828Z,6.60
2019-04-23T09:16:22.307Z,6.05
2019-04-23T09:18:56.274Z,6.75
2019-04-23T09:21:25.723Z,6.60
2019-04-23T09:23:56.183Z,6.45
2019-04-23T09:26:08.888Z,6.83
2019-04-23T09:32:00.612Z,6.85
2019-04-23T09:34:05.104Z,6.30
2019-04-23T09:36:47.495Z,5.80
2019-04-23T09:42:07.107Z,6.28
2019-04-23T09:44:48.466Z,6.03
2019-04-23T09:47:16.005Z,6.70
2019-04-23T09:49:57.219Z,6.10
2019-04-23T09:52:14.659Z,5.75
2019-04-23T09:54:40.225Z,5.92
2019-04-23T09:56:57.418Z,6.47
2019-04-23T10:01:52.873Z,6.17
2019-04-23T10:04:18.837Z,6.17
2019-04-23T10:06:34.532Z,6.33
2019-04-23T10:09:01.975Z,5.67
2019-04-23T10:11:26.372Z,6.20
2019-04-23T10:13:54.351Z,6.20
2019-04-23T10:16:24.057Z,6.62
2019-04-23T10:18:50.896Z,6.50
2019-04-23T10:21:17.613Z,6.33
2019-04-23T10:23:45.198Z,6.85
2019-04-23T10:26:12.212Z,7.03
2019-04-23T10:28:42.049Z,7.35
2019-04-23T10:31:09.099Z,7.10
2019-04-23T10:33:35.597Z,6.97
2019-04-23T10:36:08.502Z,6.87
2019-04-23T10:38:32.759Z,6.87
2019-04-23T10:41:00.130Z,6.97
2019-04-23T10:43:28.823Z,7.20
2019-04-23T10:46:25.600Z,7.50
2019-04-23T10:54:26.472Z,10.85
2019-04-23T10:59:12.209Z,9.03
2019-04-23T11:01:43.524Z,7.40
2019-04-23T11:04:23.758Z,9.70
2019-04-23T11:06:47.126Z,10.68
2019-04-23T11:09:18.507Z,10.70
2019-04-23T11:11:49.846Z,8.30
2019-04-23T11:14:11.076Z,9.00
2019-04-23T11:16:49.590Z,7.85
2019-04-23T11:19:12.352Z,7.60
2019-04-23T11:21:38.466Z,7.60
2019-04-23T11:24:11.615Z,7.12
2019-04-23T11:29:07.002Z,7.67
2019-04-23T11:31:39.225Z,7.42
2019-04-23T11:33:59.408Z,8.50
2019-04-23T11:41:34.282Z,7.70
2019-04-23T11:43:46.434Z,8.08
2019-04-23T11:50:59.848Z,7.78
2019-04-23T11:56:22.758Z,7.37
2019-04-23T11:58:42.232Z,8.70
2019-04-23T12:01:47.775Z,7.37
2019-04-23T12:04:13.158Z,7.87
2019-04-23T12:06:55.792Z,7.80
2019-04-23T12:09:37.771Z,7.67
2019-04-23T12:12:11.248Z,7.30
2019-04-23T12:17:21.974Z,7.20
2019-04-23T12:22:01.392Z,7.83
2019-04-23T12:24:55.391Z,7.20
2019-04-23T12:29:27.428Z,7.62
2019-04-23T12:32:24.147Z,7.67
2019-04-23T12:34:50.853Z,7.80
2019-04-23T12:37:10.133Z,7.20
2019-04-23T12:39:42.498Z,7.03
2019-04-23T12:42:19.774Z,7.12
2019-04-23T12:44:39.296Z,7.53
2019-04-23T12:47:09.077Z,7.28
2019-04-23T12:52:12.186Z,7.60
2019-04-23T12:54:51.091Z,7.05
2019-04-23T12:59:36.811Z,7.25
2019-04-23T13:02:03.533Z,6.72
2019-04-23T13:04:32.253Z,7.05
2019-04-23T13:07:01.207Z,7.42
2019-04-23T13:09:42.885Z,7.40
2019-04-23T13:12:01.551Z,7.15
2019-04-23T13:14:36.459Z,7.03
2019-04-23T13:17:02.370Z,6.60
2019-04-23T13:19:33.945Z,6.45
2019-04-23T13:21:58.527Z,6.47
2019-04-23T13:24:36.058Z,6.40
2019-04-23T13:27:01.224Z,5.92
2019-04-23T13:29:38.016Z,6.37
2019-04-23T13:31:49.655Z,7.40
2019-04-23T13:34:37.641Z,6.22
2019-04-23T13:36:51.306Z,6.83
2019-04-23T13:39:24.463Z,6.55
2019-04-23T13:41:48.251Z,5.83
2019-04-23T13:44:17.650Z,6.30
2019-04-23T13:46:45.294Z,6.42
2019-04-23T13:49:16.652Z,6.45
2019-04-23T13:51:40.408Z,5.90
2019-04-23T13:54:24.727Z,6.25
2019-04-23T13:59:31.406Z,6.17
2019-04-23T14:02:18.108Z,5.70
2019-04-23T14:04:34.840Z,5.67
2019-04-23T14:06:49.411Z,5.85
2019-04-23T14:09:32.481Z,5.70
2019-04-23T14:11:45.128Z,5.92
2019-04-23T14:14:36.221Z,5.80
2019-04-23T14:17:01.866Z,6.60
2019-04-23T14:19:06.809Z,6.22
2019-04-23T14:21:47.166Z,6.35
2019-04-23T14:26:39.112Z,6.25
2019-04-23T14:29:06.419Z,6.03
2019-04-23T14:31:36.936Z,5.90
2019-04-23T14:34:11.574Z,6.22
2019-04-23T14:36:39.485Z,6.53
2019-04-23T14:39:06.441Z,6.20
2019-04-23T14:41:27.314Z,5.95
2019-04-23T14:46:53.022Z,6.03
2019-04-23T14:51:49.778Z,6.00
2019-04-23T14:53:52.118Z,6.00
2019-04-23T14:56:27.812Z,5.78
2019-04-23T15:03:49.159Z,5.83
2019-04-23T15:16:26.610Z,6.05
2019-04-23T15:19:12.925Z,5.83
2019-04-23T15:21:49.503Z,6.08
2019-04-23T15:24:00.205Z,6.08
2019-04-23T15:28:18.584Z,6.20
2019-04-23T15:31:28.362Z,6.22
2019-04-23T15:33:46.687Z,5.78
2019-04-23T15:36:28.859Z,5.62
2019-04-23T15:38:43.440Z,6.28
2019-04-23T15:41:10.701Z,5.97
2019-04-23T15:43:32.631Z,6.17
2019-04-23T15:46:04.866Z,5.70
2019-04-23T15:48:32.235Z,5.95
2019-04-23T15:51:04.459Z,5.65
2019-04-23T15:53:17.991Z,5.97
2019-04-23T15:55:59.580Z,5.90
2019-04-23T15:58:40.094Z,5.80
2019-04-23T16:01:18.115Z,6.85
2019-04-23T16:03:13.579Z,5.83
2019-04-23T16:05:41.272Z,5.75
2019-04-23T16:08:50.021Z,5.67
2019-04-23T16:11:15.612Z,5.72
2019-04-23T16:13:42.652Z,5.67
2019-04-23T16:21:10.465Z,6.22
2019-04-23T16:23:37.484Z,6.25
2019-04-23T16:26:12.378Z,5.65
2019-04-23T16:28:50.479Z,5.95
2019-04-23T16:31:03.165Z,6.05
2019-04-23T16:33:34.052Z,5.90
2019-04-23T16:36:11.164Z,6.30
2019-04-23T16:38:38.355Z,6.08
2019-04-23T16:41:03.843Z,5.95
2019-04-23T16:43:48.645Z,5.78
2019-04-23T16:51:14.157Z,5.90
2019-04-23T16:53:25.228Z,5.95
2019-04-23T16:56:08.298Z,5.50
2019-04-23T16:58:36.691Z,5.75
2019-04-23T17:01:00.361Z,5.75
2019-04-23T17:05:50.523Z,5.65
2019-04-23T17:08:35.459Z,5.85
2019-04-23T17:10:53.359Z,5.78
2019-04-23T17:13:13.737Z,5.80
2019-04-23T17:15:54.736Z,5.75
2019-04-23T17:18:12.036Z,5.72
2019-04-23T17:20:37.527Z,5.67
2019-04-23T17:23:20.843Z,6.15
2019-04-23T17:25:34.851Z,5.95
2019-04-23T17:28:12.763Z,6.47
2019-04-23T17:33:19.132Z,6.40
2019-04-23T17:35:58.629Z,6.20
2019-04-23T17:38:23.032Z,6.60
2019-04-23T17:41:01.919Z,6.75
2019-04-23T17:43:26.921Z,6.25
2019-04-23T17:45:57.248Z,6.78
2019-04-23T17:48:21.955Z,6.22
2019-04-23T17:50:54.669Z,7.12
2019-04-23T17:53:25.327Z,6.33
2019-04-23T17:56:08.135Z,6.97
2019-04-23T17:58:23.354Z,6.37
2019-04-23T18:01:02.518Z,6.17
2019-04-23T18:03:36.198Z,6.62
2019-04-23T18:05:56.166Z,6.70
2019-04-23T18:08:19.094Z,6.85
2019-04-23T18:10:53.048Z,6.85
2019-04-23T18:13:16.878Z,6.30
2019-04-23T18:15:49.640Z,6.83
2019-04-23T18:18:10.071Z,6.72
2019-04-23T18:20:54.371Z,7.05
2019-04-23T18:23:15.149Z,7.22
2019-04-23T18:26:08.416Z,7.22
2019-04-23T18:28:33.543Z,6.90
2019-04-23T18:31:25.249Z,6.87
2019-04-23T18:36:20.626Z,6.80
2019-04-23T18:38:55.194Z,7.58
2019-04-23T18:41:10.517Z,7.08
2019-04-23T18:43:51.147Z,7.17
2019-04-23T18:46:25.664Z,7.30
2019-04-23T18:48:49.794Z,7.65
2019-04-23T18:51:05.197Z,7.45
2019-04-23T18:56:13.673Z,7.10
2019-04-23T19:01:27.951Z,6.97
2019-04-23T19:03:59.160Z,7.28
2019-04-23T19:06:30.394Z,7.40
2019-04-23T19:09:16.346Z,7.20
2019-04-23T19:17:09.068Z,7.42
2019-04-23T19:19:20.155Z,7.03
2019-04-23T19:24:12.652Z,6.83
2019-04-23T19:27:03.264Z,6.95
2019-04-23T19:31:49.371Z,7.00
2019-04-23T19:34:21.400Z,7.00
2019-04-23T19:36:54.643Z,7.40
2019-04-23T19:39:21.030Z,7.60
2019-04-23T19:41:51.984Z,7.10
2019-04-23T19:44:08.356Z,7.87
2019-04-23T19:46:50.535Z,7.62
2019-04-23T19:51:44.290Z,7.10
2019-04-23T19:56:39.299Z,7.45
2019-04-23T19:58:56.251Z,7.40
2019-04-23T20:03:53.659Z,7.33
2019-04-23T20:06:32.750Z,8.08
2019-04-23T20:11:30.232Z,7.83
2019-04-23T20:13:52.594Z,8.00
2019-04-23T20:16:23.182Z,8.10
2019-04-23T20:21:32.608Z,8.00
2019-04-23T20:29:10.878Z,7.70
2019-04-23T20:34:34.204Z,7.92
2019-04-23T20:36:17.025Z,8.05
2019-04-23T20:38:57.764Z,7.87
2019-04-23T20:41:11.909Z,8.85
2019-04-23T20:43:42.969Z,8.20
2019-04-23T20:48:44.737Z,8.48
2019-04-23T20:51:02.013Z,8.65
2019-04-23T20:53:35.761Z,8.80
2019-04-23T20:58:38.863Z,8.88
2019-04-23T21:01:33.963Z,8.20
2019-04-23T21:04:09.130Z,9.08
2019-04-23T21:06:10.462Z,9.00
2019-04-23T21:11:01.397Z,9.30
2019-04-23T21:13:51.816Z,8.85
2019-04-23T21:15:58.345Z,9.10
2019-04-23T21:20:56.281Z,9.05
2019-04-23T21:23:47.591Z,8.68
2019-04-23T21:39:12.103Z,8.80
2019-04-23T21:46:36.745Z,8.50
2019-04-23T21:49:18.151Z,9.03
2019-04-23T21:54:06.164Z,9.10
2019-04-23T21:56:35.583Z,9.10
2019-04-23T21:59:01.462Z,9.80
2019-04-23T22:01:34.942Z,10.32
2019-04-23T22:04:15.095Z,9.43
2019-04-23T22:06:31.604Z,9.38
2019-04-23T22:09:00.610Z,9.05
2019-04-23T22:11:42.869Z,9.63
2019-04-23T22:13:58.362Z,9.98
2019-04-23T22:19:00.321Z,9.75
2019-04-23T22:21:14.435Z,9.38
2019-04-23T22:23:53.910Z,9.75
2019-04-23T22:26:16.293Z,9.63
2019-04-23T22:28:50.130Z,9.70
2019-04-23T22:31:12.488Z,9.78
2019-04-23T22:33:50.245Z,9.45
2019-04-23T22:36:14.701Z,9.13
2019-04-23T22:43:32.724Z,9.45
2019-04-23T22:45:59.819Z,8.85
2019-04-23T22:48:25.437Z,9.10
2019-04-23T22:51:06.624Z,9.20
2019-04-23T22:53:19.093Z,9.15
2019-04-23T22:55:57.280Z,9.65
2019-04-23T22:58:27.724Z,8.83
2019-04-23T23:00:55.295Z,9.98
2019-04-23T23:03:27.057Z,8.95
2019-04-23T23:08:48.179Z,8.88
2019-04-23T23:10:51.919Z,9.40
2019-04-23T23:13:24.308Z,9.45
2019-04-23T23:20:44.894Z,9.30
2019-04-23T23:25:39.268Z,9.25
2019-04-23T23:28:11.801Z,9.08
2019-04-23T23:30:52.025Z,9.30
2019-04-23T23:33:09.398Z,9.20
2019-04-23T23:35:34.511Z,9.28
2019-04-23T23:38:07.499Z,9.23
2019-04-23T23:40:41.299Z,8.93
2019-04-23T23:43:15.812Z,9.70
2019-04-23T23:45:35.266Z,8.98
2019-04-23T23:47:59.196Z,9.50
2019-04-23T23:53:11.655Z,9.23
2019-04-23T23:55:18.481Z,9.15
2019-04-23T23:57:56.822Z,10.25
